| time (UTC) | temp F | wind direction | speed knots | gust knots | rain 1hr in | rain 24hr in | rain mn in | humidity % | barometer mb |
| 20260507103639 | 46 | 158 | 0.0 | 0.0 | 0.05 | 0.03 | 0.03 | 97 | 1037.1 |
| 20260507103504 | 46 | 182 | 0.0 | 0.0 | 0.04 | 0.00 | 0.02 | 97 | 1008.5 |
| 20260507103136 | 46 | 191 | 0.0 | 0.0 | 0.05 | 0.03 | 0.03 | 97 | 1036.9 |
| 20260507103002 | 46 | 188 | 0.0 | 0.0 | 0.00 | 0.00 | 0.02 | 97 | 1008.3 |
| 20260507102632 | 46 | 190 | 0.0 | 0.9 | 0.00 | 0.02 | 0.02 | 97 | 1037.2 |
| 20260507102503 | 46 | 188 | 0.9 | 1.7 | 0.00 | 0.00 | 0.02 | 97 | 1008.4 |
| 20260507102128 | 46 | 204 | 0.9 | 1.7 | 0.00 | 0.02 | 0.02 | 97 | 1036.8 |
| 20260507102002 | 46 | 178 | 0.0 | 0.0 | 0.00 | 0.00 | 0.02 | 97 | 1008.2 |
| 20260507101624 | 46 | 175 | 0.0 | 0.9 | 0.00 | 0.02 | 0.02 | 97 | 1036.8 |
| 20260507101503 | 46 | 179 | 0.0 | 0.0 | 0.00 | 0.00 | 0.02 | 97 | 1008.0 |
| 20260507101120 | 46 | 189 | 0.0 | 0.0 | 0.00 | 0.02 | 0.02 | 97 | 1036.5 |
| 20260507101003 | 46 | 191 | 0.0 | 0.0 | 0.00 | 0.00 | 0.02 | 97 | 1007.6 |
| 20260507100618 | 46 | 237 | 0.0 | 0.9 | 0.00 | 0.02 | 0.02 | 97 | 1036.6 |
| 20260507100116 | 46 | 164 | 0.0 | 0.9 | 0.00 | 0.02 | 0.02 | 97 | 1036.5 |
| 20260507100003 | 46 | 181 | 0.0 | 0.0 | 0.00 | 0.00 | 0.02 | 97 | 1007.9 |
| 20260507095614 | 46 | 164 | 0.0 | 0.0 | 0.00 | 0.02 | 0.02 | 97 | 1036.6 |
| 20260507095110 | 46 | 185 | 0.0 | 0.0 | 0.00 | 0.02 | 0.02 | 97 | 1036.6 |
| 20260507095003 | 46 | 184 | 0.0 | 0.0 | 0.00 | 0.00 | 0.02 | 97 | 1007.9 |
| 20260507094606 | 46 | 216 | 0.0 | 0.0 | 0.00 | 0.02 | 0.02 | 97 | 1036.4 |
| 20260507094502 | 46 | 224 | 0.0 | 0.0 | 0.00 | 0.00 | 0.02 | 97 | 1007.7 |
| 20260507094103 | 46 | 191 | 0.0 | 0.0 | 0.00 | 0.02 | 0.02 | 97 | 1036.6 |
| 20260507094003 | 46 | 191 | 0.9 | 1.7 | 0.00 | 0.00 | 0.02 | 97 | 1007.7 |
| 20260507093601 | 46 | 182 | 0.0 | 0.0 | 0.00 | 0.02 | 0.02 | 97 | 1036.5 |
| 20260507093503 | 46 | 161 | 0.9 | 1.7 | 0.00 | 0.00 | 0.02 | 97 | 1007.7 |
| 20260507093059 | 46 | 200 | 0.9 | 0.9 | 0.00 | 0.02 | 0.02 | 97 | 1036.4 |
| 20260507093003 | 46 | 352 | 0.9 | 1.7 | 0.00 | 0.00 | 0.02 | 97 | 1007.6 |
| 20260507092555 | 47 | 127 | 0.9 | 0.9 | 0.00 | 0.02 | 0.02 | 97 | 1036.2 |
| 20260507092502 | 47 | 323 | 4.3 | 5.2 | 0.00 | 0.00 | 0.02 | 97 | 1007.5 |
| 20260507092052 | 47 | 138 | 0.0 | 0.9 | 0.00 | 0.02 | 0.02 | 97 | 1036.4 |
| 20260507092003 | 47 | 178 | 0.0 | 0.0 | 0.00 | 0.00 | 0.02 | 98 | 1008.0 |
| 20260507091549 | 47 | 186 | 0.0 | 0.0 | 0.00 | 0.02 | 0.02 | 97 | 1036.4 |
| 20260507091502 | 47 | 186 | 0.0 | 0.0 | 0.00 | 0.00 | 0.02 | 97 | 1007.8 |
| 20260507091045 | 47 | 186 | 0.0 | 0.9 | 0.00 | 0.02 | 0.02 | 97 | 1036.7 |
| 20260507090541 | 47 | 194 | 0.0 | 0.9 | 0.00 | 0.02 | 0.02 | 97 | 1036.6 |
| 20260507090503 | 47 | 194 | 0.9 | 1.7 | 0.00 | 0.00 | 0.02 | 97 | 1007.9 |
| 20260507090038 | 47 | 183 | 0.0 | 0.0 | 0.00 | 0.02 | 0.02 | 97 | 1036.6 |
| 20260507090004 | 47 | 183 | 0.0 | 0.0 | 0.00 | 0.00 | 0.02 | 97 | 1007.9 |
| 20260507085535 | 47 | 125 | 0.0 | 0.0 | 0.00 | 0.02 | 0.02 | 97 | 1036.8 |
| 20260507085502 | 47 | 125 | 0.0 | 0.0 | 0.00 | 0.00 | 0.02 | 97 | 1008.1 |
| 20260507085032 | 47 | 13 | 0.0 | 0.0 | 0.00 | 0.02 | 0.02 | 97 | 1036.8 |
| 20260507084528 | 47 | 353 | 0.0 | 0.0 | 0.00 | 0.02 | 0.02 | 97 | 1037.2 |
| 20260507084026 | 47 | 283 | 0.0 | 0.0 | 0.00 | 0.02 | 0.02 | 97 | 1037.3 |
| 20260507084003 | 47 | 283 | 0.0 | 0.0 | 0.00 | 0.00 | 0.02 | 97 | 1008.6 |
| 20260507083521 | 47 | 164 | 0.0 | 0.0 | 0.00 | 0.02 | 0.02 | 97 | 1037.3 |
| 20260507083502 | 47 | 164 | 0.0 | 0.0 | 0.00 | 0.00 | 0.02 | 97 | 1008.6 |
| 20260507083019 | 47 | 153 | 0.0 | 0.0 | 0.00 | 0.02 | 0.02 | 97 | 1037.0 |
| 20260507083003 | 47 | 153 | 0.0 | 0.0 | 0.00 | 0.00 | 0.02 | 97 | 1008.3 |
| 20260507082515 | 47 | 143 | 0.0 | 0.9 | 0.00 | 0.02 | 0.02 | 97 | 1036.7 |
| 20260507082502 | 47 | 143 | 0.9 | 1.7 | 0.00 | 0.00 | 0.02 | 97 | 1008.0 |
| 20260507082011 | 47 | 189 | 0.0 | 0.0 | 0.00 | 0.02 | 0.02 | 97 | 1036.9 |
| 20260507082003 | 47 | 189 | 0.0 | 0.0 | 0.00 | 0.00 | 0.02 | 97 | 1008.2 |
| 20260507081508 | 47 | 185 | 0.0 | 0.0 | 0.00 | 0.02 | 0.02 | 97 | 1037.0 |
| 20260507081502 | 47 | 185 | 0.0 | 0.0 | 0.00 | 0.00 | 0.02 | 97 | 1008.3 |
| 20260507081004 | 47 | 208 | 0.0 | 0.9 | 0.00 | 0.02 | 0.02 | 97 | 1036.9 |
| 20260507080503 | 47 | 225 | 0.9 | 2.6 | 0.00 | 0.00 | 0.02 | 97 | 1007.8 |
| 20260507080500 | 47 | 225 | 0.9 | 1.7 | 0.00 | 0.02 | 0.02 | 97 | 1036.5 |
| 20260507080002 | 47 | 205 | 0.0 | 0.0 | 0.00 | 0.00 | 0.02 | 97 | 1008.0 |
| 20260507075956 | 47 | 205 | 0.0 | 0.0 | 0.00 | 0.02 | 0.02 | 97 | 1036.7 |
| 20260507075502 | 47 | 206 | 0.9 | 1.7 | 0.00 | 0.00 | 0.02 | 97 | 1007.8 |
| 20260507075452 | 47 | 206 | 0.9 | 0.9 | 0.00 | 0.02 | 0.02 | 97 | 1036.5 |
| 20260507075003 | 47 | 192 | 0.0 | 0.0 | 0.00 | 0.00 | 0.02 | 97 | 1007.8 |
| 20260507074949 | 47 | 192 | 0.0 | 0.0 | 0.00 | 0.02 | 0.02 | 97 | 1036.5 |
| 20260507074502 | 47 | 192 | 0.9 | 1.7 | 0.00 | 0.00 | 0.02 | 96 | 1008.1 |
| 20260507074446 | 47 | 192 | 0.0 | 0.9 | 0.00 | 0.02 | 0.02 | 96 | 1036.8 |
| 20260507074003 | 47 | 187 | 0.9 | 1.7 | 0.04 | 0.00 | 0.02 | 96 | 1008.0 |
| 20260507073944 | 47 | 190 | 0.0 | 0.0 | 0.05 | 0.02 | 0.02 | 96 | 1036.8 |
| 20260507073440 | 47 | 218 | 0.9 | 0.9 | 0.05 | 0.02 | 0.02 | 95 | 1036.8 |
| 20260507073002 | 47 | 200 | 0.9 | 1.7 | 0.00 | 0.00 | 0.01 | 95 | 1008.0 |
| 20260507072936 | 47 | 213 | 0.0 | 0.0 | 0.00 | 0.01 | 0.01 | 95 | 1036.6 |
| 20260507072503 | 48 | 327 | 2.6 | 3.5 | 0.00 | 0.00 | 0.01 | 95 | 1007.9 |
| 20260507072434 | 48 | 204 | 0.9 | 0.9 | 0.00 | 0.01 | 0.01 | 95 | 1036.6 |
| 20260507071932 | 48 | 238 | 0.0 | 0.9 | 0.07 | 0.01 | 0.01 | 94 | 1036.9 |
| 20260507071503 | 48 | 237 | 0.9 | 1.7 | 0.07 | 0.00 | 0.01 | 93 | 1007.7 |
| 20260507071428 | 48 | 177 | 0.0 | 0.9 | 0.07 | 0.01 | 0.01 | 93 | 1036.6 |
| 20260507070925 | 48 | 221 | 0.0 | 0.9 | 0.00 | 0.00 | 0.00 | 93 | 1036.5 |
| 20260507070423 | 48 | 215 | 0.0 | 0.0 | 0.00 | 0.00 | 0.00 | 92 | 1036.5 |
| 20260507065919 | 48 | 217 | 0.0 | 0.9 | 0.00 | 0.00 | 0.00 | 92 | 1036.3 |
| 20260507065502 | 48 | 191 | 0.0 | 0.0 | 0.00 | 0.00 | 0.00 | 91 | 1007.7 |
| 20260507065416 | 48 | 214 | 0.0 | 0.9 | 0.00 | 0.00 | 0.00 | 92 | 1036.3 |
| 20260507065003 | 48 | 181 | 0.9 | 1.7 | 0.00 | 0.00 | 0.00 | 91 | 1007.4 |
| 20260507064913 | 48 | 174 | 0.0 | 0.0 | 0.00 | 0.00 | 0.00 | 91 | 1036.0 |
| 20260507064502 | 48 | 202 | 1.7 | 1.7 | 0.00 | 0.00 | 0.00 | 90 | 1007.3 |
| 20260507064411 | 48 | 203 | 0.0 | 0.0 | 0.00 | 0.00 | 0.00 | 90 | 1036.0 |
| 20260507064002 | 49 | 306 | 1.7 | 2.6 | 0.00 | 0.00 | 0.00 | 89 | 1007.3 |
| 20260507063909 | 49 | 205 | 1.7 | 1.7 | 0.00 | 0.00 | 0.00 | 89 | 1036.0 |
| 20260507063503 | 49 | 131 | 0.0 | 0.0 | 0.00 | 0.00 | 0.00 | 88 | 1007.2 |
| 20260507063406 | 48 | 211 | 0.0 | 0.0 | 0.00 | 0.00 | 0.00 | 89 | 1036.0 |
| 20260507063003 | 49 | 207 | 0.9 | 1.7 | 0.00 | 0.00 | 0.00 | 89 | 1007.1 |
| 20260507062903 | 49 | 209 | 0.0 | 0.0 | 0.00 | 0.00 | 0.00 | 88 | 1035.7 |
| 20260507062503 | 49 | 24 | 0.0 | 0.0 | 0.00 | 0.00 | 0.00 | 87 | 1007.3 |
| 20260507062359 | 49 | 227 | 0.9 | 1.7 | 0.00 | 0.00 | 0.00 | 88 | 1035.7 |
| 20260507061857 | 49 | 69 | 0.9 | 0.9 | 0.00 | 0.00 | 0.00 | 88 | 1035.8 |
| 20260507061503 | 49 | 2 | 0.0 | 0.0 | 0.00 | 0.00 | 0.00 | 89 | 1007.5 |
| 20260507061355 | 49 | 276 | 1.7 | 2.6 | 0.00 | 0.00 | 0.00 | 89 | 1036.1 |
| 20260507061003 | 49 | 66 | 3.5 | 4.3 | 0.00 | 0.00 | 0.00 | 90 | 1007.5 |
| 20260507060853 | 49 | 18 | 0.0 | 0.0 | 0.00 | 0.00 | 0.00 | 90 | 1036.2 |
| 20260507060502 | 49 | 237 | 0.9 | 1.7 | 0.00 | 0.00 | 0.00 | 91 | 1007.5 |
| 20260507060349 | 49 | 332 | 0.0 | 0.9 | 0.00 | 0.00 | 0.00 | 92 | 1036.3 |
| 20260507060003 | 49 | 258 | 0.0 | 0.0 | 0.00 | 0.00 | 0.00 | 91 | 1007.7 |
| 20260507055846 | 50 | 301 | 1.7 | 2.6 | 0.00 | 0.00 | 0.00 | 92 | 1036.3 |
| 20260507055502 | 49 | 214 | 0.9 | 1.7 | 0.00 | 0.00 | 0.00 | 92 | 1007.7 |
| 20260507055341 | 49 | 142 | 1.7 | 1.7 | 0.00 | 0.00 | 0.00 | 92 | 1036.1 |
| 20260507055003 | 50 | 178 | 0.9 | 1.7 | 0.00 | 0.00 | 0.00 | 93 | 1007.6 |
| 20260507054839 | 50 | 104 | 0.0 | 0.9 | 0.00 | 0.00 | 0.00 | 93 | 1036.0 |
| 20260507054503 | 50 | 269 | 0.9 | 1.7 | 0.00 | 0.00 | 0.00 | 93 | 1007.3 |
| 20260507054334 | 50 | 183 | 0.9 | 0.9 | 0.00 | 0.00 | 0.00 | 94 | 1036.1 |
| 20260507054002 | 50 | 106 | 0.9 | 1.7 | 0.00 | 0.00 | 0.00 | 95 | 1007.6 |
| 20260507053832 | 50 | 191 | 0.9 | 0.9 | 0.00 | 0.00 | 0.00 | 95 | 1036.3 |
| 20260507053502 | 50 | 21 | 0.0 | 0.0 | 0.00 | 0.00 | 0.00 | 94 | 1007.7 |
| 20260507053329 | 50 | 261 | 0.0 | 0.9 | 0.00 | 0.00 | 0.00 | 95 | 1036.2 |
| 20260507053003 | 50 | 100 | 0.9 | 1.7 | 0.00 | 0.00 | 0.00 | 95 | 1007.8 |
| 20260507052828 | 50 | 246 | 0.9 | 0.9 | 0.00 | 0.00 | 0.00 | 95 | 1036.4 |
| 20260507052502 | 50 | 195 | 0.9 | 1.7 | 0.00 | 0.00 | 0.00 | 95 | 1008.0 |
| 20260507052324 | 50 | 209 | 0.0 | 0.0 | 0.00 | 0.00 | 0.00 | 95 | 1036.4 |
| 20260507052003 | 50 | 207 | 0.9 | 1.7 | 0.00 | 0.00 | 0.00 | 95 | 1008.1 |
| 20260507051822 | 50 | 228 | 0.9 | 0.9 | 0.00 | 0.00 | 0.00 | 96 | 1036.7 |
| 20260507051502 | 50 | 71 | 0.9 | 1.7 | 0.00 | 0.00 | 0.00 | 95 | 1008.1 |
| 20260507051320 | 50 | 197 | 0.0 | 0.9 | 0.00 | 0.00 | 0.00 | 96 | 1036.6 |
| 20260507051003 | 50 | 251 | 0.9 | 1.7 | 0.00 | 0.00 | 0.00 | 96 | 1008.0 |
| 20260507050816 | 50 | 73 | 0.9 | 1.7 | 0.00 | 0.00 | 0.00 | 96 | 1036.7 |
| 20260507050313 | 50 | 146 | 1.7 | 1.7 | 0.00 | 0.00 | 0.00 | 96 | 1036.6 |
| 20260507050003 | 51 | 269 | 0.9 | 1.7 | 0.00 | 0.00 | 0.00 | 96 | 1007.9 |
| 20260507045810 | 51 | 207 | 1.7 | 1.7 | 0.00 | 0.00 | 0.00 | 97 | 1036.5 |
| 20260507045503 | 51 | 180 | 0.9 | 1.7 | 0.00 | 0.00 | 0.00 | 97 | 1007.9 |
| 20260507045307 | 51 | 223 | 0.9 | 0.9 | 0.00 | 0.00 | 0.00 | 97 | 1036.5 |
| 20260507044803 | 51 | 206 | 0.0 | 0.0 | 0.00 | 0.00 | 0.00 | 98 | 1036.4 |
| 20260507044503 | 51 | 205 | 0.0 | 0.0 | 0.00 | 0.00 | 0.00 | 98 | 1007.8 |
| 20260507044300 | 51 | 264 | 0.0 | 0.9 | 0.00 | 0.00 | 0.00 | 98 | 1036.4 |
| 20260507043756 | 51 | 161 | 0.0 | 0.0 | 0.00 | 0.00 | 0.00 | 98 | 1036.4 |
| 20260507043502 | 51 | 58 | 0.0 | 0.0 | 0.00 | 0.00 | 0.00 | 98 | 1007.5 |
| 20260507043253 | 51 | 148 | 0.0 | 0.0 | 0.00 | 0.00 | 0.00 | 99 | 1036.3 |
| 20260507043002 | 52 | 357 | 1.7 | 3.5 | 0.00 | 0.00 | 0.00 | 99 | 1007.9 |
| 20260507042749 | 52 | 187 | 2.6 | 4.3 | 0.00 | 0.00 | 0.00 | 99 | 1036.3 |
| 20260507042503 | 53 | 202 | 1.7 | 2.6 | 0.00 | 0.00 | 0.00 | 99 | 1007.8 |
| 20260507042244 | 53 | 288 | 0.9 | 1.7 | 0.00 | 0.00 | 0.00 | 99 | 1036.6 |
| 20260507042003 | 53 | 202 | 0.0 | 0.0 | 0.00 | 0.00 | 0.00 | 99 | 1007.8 |
| 20260507041742 | 53 | 203 | 0.0 | 0.0 | 0.00 | 0.00 | 0.00 | 99 | 1036.3 |
| 20260507041238 | 53 | 191 | 0.0 | 0.0 | 0.00 | 0.00 | 0.00 | 99 | 1036.2 |
| 20260507041003 | 53 | 191 | 0.0 | 0.0 | 0.00 | 0.00 | 0.00 | 99 | 1007.5 |
| 20260507040735 | 53 | 136 | 0.0 | 0.0 | 0.00 | 0.00 | 0.00 | 99 | 1036.1 |
| 20260507040503 | 53 | 132 | 0.0 | 0.0 | 0.00 | 0.00 | 0.00 | 99 | 1007.3 |
| 20260507040231 | 53 | 169 | 0.0 | 0.0 | 0.00 | 0.00 | 0.00 | 99 | 1036.3 |
| 20260507035727 | 53 | 160 | 0.0 | 0.0 | 0.05 | 0.26 | 0.26 | 99 | 1036.1 |
| 20260507035503 | 53 | 172 | 0.9 | 1.7 | 0.04 | 0.26 | 0.26 | 99 | 1007.5 |
| 20260507035223 | 53 | 202 | 0.9 | 0.9 | 0.05 | 0.26 | 0.26 | 99 | 1036.4 |
| 20260507035002 | 53 | 205 | 1.7 | 2.6 | 0.00 | 0.25 | 0.25 | 99 | 1007.7 |
| 20260507034721 | 53 | 234 | 0.9 | 0.9 | 0.00 | 0.25 | 0.25 | 99 | 1036.4 |
| 20260507034503 | 53 | 241 | 1.7 | 2.6 | 0.00 | 0.25 | 0.25 | 99 | 1007.8 |
| 20260507034217 | 54 | 176 | 1.7 | 1.7 | 0.00 | 0.25 | 0.25 | 99 | 1036.4 |
| 20260507034002 | 54 | 199 | 1.7 | 2.6 | 0.00 | 0.00 | 0.25 | 99 | 1007.8 |
| 20260507033716 | 54 | 222 | 0.9 | 0.9 | 0.00 | 0.25 | 0.25 | 99 | 1036.3 |
| 20260507033502 | 54 | 202 | 1.7 | 1.7 | 0.00 | 0.00 | 0.25 | 99 | 1007.4 |
| 20260507033213 | 54 | 200 | 0.9 | 1.7 | 0.00 | 0.25 | 0.25 | 99 | 1036.1 |
| 20260507033003 | 54 | 42 | 0.9 | 1.7 | 0.00 | 0.00 | 0.25 | 99 | 1007.4 |
| 20260507032710 | 54 | 207 | 0.9 | 0.9 | 0.00 | 0.25 | 0.25 | 99 | 1036.2 |
| 20260507032503 | 54 | 181 | 1.7 | 2.6 | 0.00 | 0.00 | 0.25 | 99 | 1007.2 |
| 20260507032206 | 54 | 217 | 2.6 | 4.3 | 0.00 | 0.25 | 0.25 | 98 | 1036.1 |
| 20260507032003 | 55 | 215 | 2.6 | 4.3 | 0.00 | 0.00 | 0.25 | 98 | 1007.2 |
| 20260507031703 | 55 | 240 | 2.6 | 2.6 | 0.00 | 0.25 | 0.25 | 98 | 1035.8 |
| 20260507031502 | 55 | 222 | 0.9 | 1.7 | 0.00 | 0.00 | 0.25 | 98 | 1007.0 |
| 20260507031200 | 55 | 210 | 1.7 | 1.7 | 0.00 | 0.25 | 0.25 | 98 | 1035.9 |
| 20260507030656 | 55 | 181 | 1.7 | 2.6 | 0.00 | 0.25 | 0.25 | 98 | 1035.7 |
| 20260507030154 | 55 | 252 | 1.7 | 1.7 | 0.00 | 0.25 | 0.25 | 99 | 1035.7 |
| 20260507030002 | 55 | 219 | 0.9 | 1.7 | 0.00 | 0.00 | 0.25 | 99 | 1007.0 |
| 20260507025651 | 56 | 232 | 2.6 | 4.3 | 0.00 | 0.25 | 0.25 | 99 | 1035.6 |
| 20260507025148 | 56 | 109 | 0.0 | 0.0 | 0.00 | 0.25 | 0.25 | 99 | 1035.7 |
| 20260507024646 | 57 | 344 | 2.6 | 2.6 | 0.00 | 0.25 | 0.25 | 99 | 1035.4 |
| 20260507024143 | 57 | 216 | 0.9 | 1.7 | 0.00 | 0.25 | 0.25 | 99 | 1035.5 |
| 20260507023638 | 58 | 324 | 0.9 | 2.6 | 0.00 | 0.25 | 0.25 | 99 | 1035.6 |
| 20260507023502 | 58 | 88 | 0.9 | 1.7 | 0.00 | 0.00 | 0.25 | 99 | 1006.7 |
| 20260507023136 | 58 | 215 | 2.6 | 2.6 | 0.00 | 0.25 | 0.25 | 99 | 1035.3 |
| 20260507023003 | 58 | 348 | 1.7 | 3.5 | 0.00 | 0.00 | 0.25 | 99 | 1006.5 |
| 20260507022633 | 58 | 208 | 0.0 | 0.9 | 0.00 | 0.25 | 0.25 | 99 | 1035.1 |
| 20260507022502 | 58 | 217 | 1.7 | 4.3 | 0.00 | 0.00 | 0.25 | 99 | 1006.5 |
| 20260507022128 | 58 | 119 | 0.0 | 0.0 | 0.00 | 0.25 | 0.25 | 99 | 1035.4 |
| 20260507022003 | 58 | 214 | 1.7 | 2.6 | 0.00 | 0.00 | 0.25 | 99 | 1006.4 |
| 20260507021625 | 58 | 217 | 1.7 | 1.7 | 0.00 | 0.25 | 0.25 | 99 | 1035.5 |
| 20260507021503 | 58 | 44 | 0.9 | 2.6 | 0.00 | 0.00 | 0.25 | 99 | 1006.7 |
| 20260507021120 | 58 | 280 | 1.7 | 1.7 | 0.00 | 0.25 | 0.25 | 99 | 1035.2 |
| 20260507021002 | 58 | 243 | 1.7 | 2.6 | 0.00 | 0.00 | 0.25 | 99 | 1006.5 |
| 20260507020619 | 58 | 184 | 0.9 | 0.9 | 0.00 | 0.25 | 0.25 | 99 | 1035.2 |
| 20260507020503 | 58 | 204 | 1.7 | 2.6 | 0.00 | 0.00 | 0.25 | 99 | 1006.6 |
| 20260507020115 | 58 | 199 | 2.6 | 2.6 | 0.00 | 0.25 | 0.25 | 99 | 1035.3 |
| 20260507020002 | 58 | 49 | 3.5 | 4.3 | 0.00 | 0.00 | 0.25 | 99 | 1006.4 |
| 20260507015614 | 58 | 219 | 0.9 | 0.9 | 0.00 | 0.25 | 0.25 | 99 | 1035.1 |
| 20260507015503 | 58 | 16 | 0.0 | 0.0 | 0.00 | 0.00 | 0.25 | 99 | 1006.5 |
| 20260507015111 | 58 | 10 | 0.9 | 1.7 | 0.00 | 0.25 | 0.25 | 99 | 1034.9 |
| 20260507015003 | 58 | 205 | 0.9 | 1.7 | 0.00 | 0.00 | 0.25 | 99 | 1006.4 |
| 20260507014607 | 58 | 191 | 1.7 | 1.7 | 0.00 | 0.25 | 0.25 | 99 | 1035.0 |
| 20260507014103 | 58 | 169 | 3.5 | 4.3 | 0.00 | 0.25 | 0.25 | 99 | 1035.1 |
| 20260507014003 | 58 | 190 | 2.6 | 3.5 | 0.00 | 0.00 | 0.25 | 99 | 1006.3 |
| 20260507013559 | 58 | 128 | 0.0 | 0.9 | 0.00 | 0.25 | 0.25 | 99 | 1035.1 |
| 20260507013502 | 58 | 133 | 0.9 | 1.7 | 0.00 | 0.00 | 0.25 | 99 | 1006.5 |
| 20260507013057 | 58 | 113 | 0.9 | 1.7 | 0.00 | 0.25 | 0.25 | 99 | 1035.0 |
| 20260507013003 | 58 | 198 | 0.9 | 1.7 | 0.00 | 0.00 | 0.25 | 99 | 1006.6 |
| 20260507012554 | 58 | 200 | 2.6 | 4.3 | 0.00 | 0.25 | 0.25 | 99 | 1035.3 |
| 20260507012050 | 58 | 195 | 0.9 | 0.9 | 0.00 | 0.25 | 0.25 | 99 | 1035.1 |
| 20260507012003 | 58 | 189 | 0.9 | 2.6 | 0.00 | 0.00 | 0.25 | 99 | 1006.5 |
| 20260507011548 | 58 | 185 | 0.0 | 0.9 | 0.00 | 0.25 | 0.25 | 99 | 1034.9 |
| 20260507011044 | 58 | 183 | 0.0 | 0.9 | 0.00 | 0.25 | 0.25 | 99 | 1035.1 |
| 20260507011002 | 58 | 183 | 0.9 | 1.7 | 0.00 | 0.00 | 0.25 | 99 | 1006.4 |
| 20260507010539 | 58 | 231 | 1.7 | 1.7 | 0.00 | 0.25 | 0.25 | 99 | 1035.0 |
| 20260507010503 | 58 | 231 | 1.7 | 2.6 | 0.00 | 0.00 | 0.25 | 99 | 1006.3 |
| 20260507010035 | 58 | 181 | 0.0 | 0.0 | 0.00 | 0.25 | 0.25 | 99 | 1035.1 |
| 20260507010004 | 58 | 181 | 0.0 | 0.0 | 0.00 | 0.00 | 0.25 | 99 | 1006.4 |
| 20260507005533 | 58 | 207 | 1.7 | 1.7 | 0.00 | 0.25 | 0.25 | 99 | 1035.3 |
| 20260507005502 | 58 | 207 | 1.7 | 2.6 | 0.00 | 0.00 | 0.25 | 99 | 1006.6 |
| 20260507005029 | 58 | 194 | 0.9 | 1.7 | 0.00 | 0.25 | 0.25 | 99 | 1035.4 |
| 20260507005003 | 58 | 194 | 1.7 | 2.6 | 0.00 | 0.00 | 0.25 | 99 | 1006.7 |
| 20260507004526 | 58 | 99 | 2.6 | 4.3 | 0.00 | 0.25 | 0.25 | 99 | 1035.3 |
| 20260507004023 | 57 | 200 | 1.7 | 2.6 | 0.05 | 0.25 | 0.25 | 99 | 1035.1 |
| 20260507004003 | 57 | 200 | 2.6 | 3.5 | 0.04 | 0.00 | 0.25 | 99 | 1006.4 |
| 20260507003519 | 57 | 186 | 0.0 | 0.9 | 0.05 | 0.25 | 0.25 | 99 | 1035.1 |
| 20260507003502 | 57 | 186 | 0.9 | 1.7 | 0.04 | 0.00 | 0.25 | 99 | 1006.4 |
| 20260507003014 | 57 | 135 | 1.7 | 2.6 | 0.00 | 0.24 | 0.24 | 99 | 1035.1 |
| 20260507002511 | 57 | 169 | 0.9 | 0.9 | 0.00 | 0.24 | 0.24 | 99 | 1035.2 |
| 20260507002502 | 57 | 169 | 0.9 | 1.7 | 0.00 | 0.00 | 0.24 | 99 | 1006.5 |
| 20260507002007 | 57 | 187 | 0.0 | 0.0 | 0.00 | 0.24 | 0.24 | 99 | 1035.2 |
| 20260507002002 | 57 | 187 | 0.0 | 0.0 | 0.00 | 0.00 | 0.24 | 99 | 1006.5 |
| 20260507001503 | 57 | 142 | 0.9 | 0.9 | 0.00 | 0.24 | 0.24 | 99 | 1035.2 |
| 20260507001001 | 57 | 156 | 0.9 | 1.7 | 0.00 | 0.24 | 0.24 | 99 | 1035.1 |
| 20260507000502 | 57 | 181 | 2.6 | 3.5 | 0.00 | 0.00 | 0.24 | 99 | 1006.3 |
| 20260507000457 | 57 | 181 | 2.6 | 2.6 | 0.00 | 0.24 | 0.24 | 99 | 1035.0 |
| 20260507000003 | 57 | 331 | 0.0 | 0.0 | 0.00 | 0.00 | 0.24 | 99 | 1006.4 |
| 20260506235952 | 57 | 331 | 0.0 | 0.0 | 0.00 | 0.24 | 0.24 | 99 | 1035.1 |
| 20260506235503 | 57 | 209 | 1.7 | 2.6 | 0.00 | 0.00 | 0.24 | 99 | 1006.4 |
| 20260506235450 | 57 | 209 | 0.9 | 1.7 | 0.00 | 0.24 | 0.24 | 99 | 1035.1 |
| 20260506235002 | 57 | 134 | 0.9 | 1.7 | 0.00 | 0.00 | 0.24 | 99 | 1006.3 |
| 20260506234946 | 57 | 134 | 0.9 | 0.9 | 0.00 | 0.24 | 0.24 | 99 | 1035.0 |
| 20260506234502 | 57 | 158 | 1.7 | 2.6 | 0.00 | 0.00 | 0.24 | 99 | 1006.2 |
| 20260506234443 | 57 | 352 | 0.0 | 0.0 | 0.00 | 0.24 | 0.24 | 99 | 1034.7 |
| 20260506234003 | 57 | 183 | 0.9 | 1.7 | 0.00 | 0.00 | 0.24 | 99 | 1006.0 |
| 20260506233941 | 57 | 191 | 0.9 | 0.9 | 0.00 | 0.24 | 0.24 | 99 | 1034.9 |
| 20260506233503 | 57 | 205 | 1.7 | 2.6 | 0.00 | 0.00 | 0.24 | 99 | 1006.1 |
| 20260506233437 | 57 | 134 | 0.9 | 0.9 | 0.00 | 0.24 | 0.24 | 99 | 1034.9 |
| 20260506232934 | 57 | 176 | 0.0 | 0.9 | 0.00 | 0.24 | 0.24 | 99 | 1034.7 |
| 20260506232503 | 57 | 33 | 0.9 | 2.6 | 0.00 | 0.00 | 0.24 | 99 | 1006.0 |
| 20260506232430 | 57 | 176 | 0.0 | 0.9 | 0.00 | 0.24 | 0.24 | 99 | 1034.6 |
| 20260506231926 | 57 | 92 | 0.0 | 0.9 | 0.00 | 0.24 | 0.24 | 99 | 1034.8 |
| 20260506231502 | 57 | 174 | 0.0 | 0.0 | 0.00 | 0.00 | 0.24 | 99 | 1006.0 |
| 20260506231423 | 57 | 101 | 1.7 | 1.7 | 0.00 | 0.24 | 0.24 | 99 | 1034.8 |
| 20260506231003 | 57 | 169 | 0.9 | 1.7 | 0.00 | 0.00 | 0.24 | 99 | 1006.0 |
| 20260506230920 | 58 | 189 | 0.9 | 0.9 | 0.00 | 0.24 | 0.24 | 99 | 1034.8 |
| 20260506230502 | 57 | 172 | 0.9 | 1.7 | 0.00 | 0.00 | 0.24 | 99 | 1006.0 |
| 20260506230417 | 57 | 49 | 0.0 | 0.9 | 0.00 | 0.24 | 0.24 | 99 | 1034.5 |
| 20260506230002 | 57 | 172 | 1.7 | 2.6 | 0.00 | 0.00 | 0.24 | 99 | 1006.1 |
| 20260506225914 | 57 | 66 | 0.0 | 0.9 | 0.05 | 0.24 | 0.24 | 99 | 1034.7 |
| 20260506225503 | 57 | 135 | 0.9 | 2.6 | 0.04 | 0.00 | 0.24 | 99 | 1006.0 |
| 20260506225411 | 57 | 187 | 2.6 | 4.3 | 0.05 | 0.24 | 0.24 | 99 | 1034.8 |
| 20260506224908 | 57 | 170 | 0.0 | 0.9 | 0.00 | 0.24 | 0.24 | 99 | 1034.7 |
| 20260506224503 | 57 | 190 | 2.6 | 3.5 | 0.07 | 0.00 | 0.23 | 99 | 1005.9 |
| 20260506224405 | 57 | 182 | 0.9 | 1.7 | 0.07 | 0.24 | 0.24 | 99 | 1034.9 |
| 20260506224003 | 57 | 201 | 0.9 | 1.7 | 0.11 | 0.00 | 0.23 | 99 | 1006.2 |
| 20260506223901 | 57 | 182 | 0.9 | 0.9 | 0.12 | 0.24 | 0.24 | 99 | 1034.7 |
| 20260506223356 | 57 | 168 | 1.7 | 2.6 | 0.09 | 0.22 | 0.22 | 99 | 1034.7 |
| 20260506222854 | 57 | 191 | 0.9 | 0.9 | 0.05 | 0.21 | 0.21 | 99 | 1034.7 |
| 20260506222350 | 57 | 184 | 0.9 | 0.9 | 0.09 | 0.21 | 0.21 | 99 | 1034.9 |
| 20260506222002 | 57 | 212 | 0.9 | 1.7 | 0.04 | 0.00 | 0.20 | 99 | 1006.4 |
| 20260506221848 | 57 | 171 | 1.7 | 1.7 | 0.05 | 0.20 | 0.20 | 99 | 1034.9 |
| 20260506221345 | 57 | 189 | 0.9 | 0.9 | 0.00 | 0.19 | 0.19 | 99 | 1035.1 |
| 20260506220842 | 57 | 60 | 0.9 | 0.9 | 0.00 | 0.19 | 0.19 | 99 | 1035.0 |
| 20260506220338 | 57 | 190 | 0.0 | 0.0 | 0.00 | 0.19 | 0.19 | 99 | 1035.0 |
| 20260506220002 | 57 | 157 | 1.7 | 2.6 | 0.00 | 0.00 | 0.19 | 99 | 1006.4 |
| 20260506215835 | 57 | 195 | 0.9 | 1.7 | 0.00 | 0.19 | 0.19 | 99 | 1035.0 |
| 20260506215503 | 57 | 187 | 2.6 | 3.5 | 0.00 | 0.00 | 0.19 | 99 | 1006.5 |
| 20260506215330 | 57 | 200 | 2.6 | 2.6 | 0.00 | 0.19 | 0.19 | 99 | 1035.3 |
| 20260506215002 | 57 | 200 | 1.7 | 3.5 | 0.00 | 0.00 | 0.19 | 99 | 1006.5 |
| 20260506214826 | 58 | 159 | 0.9 | 0.9 | 0.00 | 0.19 | 0.19 | 99 | 1035.1 |
| 20260506214323 | 58 | 168 | 0.0 | 0.0 | 0.07 | 0.19 | 0.19 | 99 | 1035.1 |
| 20260506213822 | 58 | 196 | 0.9 | 0.9 | 0.12 | 0.19 | 0.19 | 99 | 1035.2 |
| 20260506213502 | 58 | 177 | 0.0 | 0.0 | 0.09 | 0.00 | 0.18 | 99 | 1006.3 |
| 20260506213319 | 58 | 183 | 0.0 | 0.0 | 0.09 | 0.18 | 0.18 | 99 | 1035.0 |
| 20260506212816 | 58 | 192 | 0.0 | 0.9 | 0.05 | 0.17 | 0.17 | 98 | 1035.4 |
| 20260506212502 | 58 | 195 | 2.6 | 3.5 | 0.00 | 0.00 | 0.16 | 98 | 1006.6 |
| 20260506212312 | 58 | 187 | 0.9 | 0.9 | 0.00 | 0.17 | 0.17 | 98 | 1035.7 |
| 20260506211807 | 58 | 178 | 0.9 | 0.9 | 0.00 | 0.17 | 0.17 | 98 | 1035.3 |
| 20260506211502 | 58 | 161 | 0.9 | 1.7 | 0.00 | 0.00 | 0.16 | 98 | 1006.8 |
| 20260506211303 | 58 | 188 | 2.6 | 2.6 | 0.00 | 0.17 | 0.17 | 98 | 1035.3 |
| 20260506211003 | 58 | 134 | 2.6 | 3.5 | 0.00 | 0.00 | 0.16 | 98 | 1006.7 |
| 20260506210801 | 58 | 182 | 0.0 | 0.9 | 0.00 | 0.17 | 0.17 | 98 | 1035.5 |
| 20260506210257 | 58 | 193 | 2.6 | 2.6 | 0.00 | 0.17 | 0.17 | 98 | 1035.3 |
| 20260506210002 | 58 | 12 | 0.9 | 2.6 | 0.00 | 0.00 | 0.16 | 98 | 1006.6 |
| 20260506205754 | 58 | 181 | 1.7 | 1.7 | 0.00 | 0.17 | 0.17 | 98 | 1035.7 |
| 20260506205503 | 58 | 165 | 0.9 | 1.7 | 0.00 | 0.00 | 0.16 | 98 | 1006.7 |
| 20260506205250 | 58 | 88 | 0.9 | 1.7 | 0.05 | 0.17 | 0.17 | 98 | 1035.5 |
| 20260506205002 | 58 | 209 | 1.7 | 2.6 | 0.04 | 0.00 | 0.16 | 98 | 1006.9 |
| 20260506204747 | 58 | 203 | 1.7 | 1.7 | 0.05 | 0.17 | 0.17 | 98 | 1035.6 |
| 20260506204503 | 58 | 85 | 0.9 | 1.7 | 0.04 | 0.00 | 0.16 | 98 | 1006.8 |
| 20260506204245 | 58 | 201 | 0.9 | 0.9 | 0.00 | 0.16 | 0.16 | 98 | 1035.5 |
| 20260506203742 | 58 | 95 | 0.9 | 0.9 | 0.00 | 0.16 | 0.16 | 97 | 1035.7 |
| 20260506203239 | 58 | 211 | 0.9 | 1.7 | 0.00 | 0.16 | 0.16 | 97 | 1035.9 |
| 20260506203002 | 58 | 132 | 0.9 | 1.7 | 0.00 | 0.00 | 0.15 | 97 | 1007.2 |
| 20260506202736 | 58 | 84 | 0.9 | 1.7 | 0.00 | 0.16 | 0.16 | 97 | 1035.7 |
| 20260506202503 | 58 | 174 | 3.5 | 4.3 | 0.00 | 0.00 | 0.15 | 97 | 1007.0 |
| 20260506202233 | 58 | 201 | 0.0 | 0.9 | 0.00 | 0.16 | 0.16 | 97 | 1035.5 |
| 20260506202002 | 58 | 183 | 1.7 | 2.6 | 0.00 | 0.00 | 0.15 | 97 | 1007.2 |
| 20260506201730 | 58 | 234 | 1.7 | 1.7 | 0.00 | 0.16 | 0.16 | 97 | 1035.8 |
| 20260506201503 | 58 | 188 | 0.9 | 1.7 | 0.04 | 0.00 | 0.15 | 97 | 1007.0 |
| 20260506201226 | 58 | 191 | 3.5 | 4.3 | 0.05 | 0.16 | 0.16 | 97 | 1036.0 |
| 20260506201002 | 58 | 162 | 0.9 | 1.7 | 0.04 | 0.00 | 0.15 | 97 | 1007.1 |
| 20260506200723 | 58 | 224 | 2.6 | 2.6 | 0.05 | 0.16 | 0.16 | 97 | 1035.9 |
| 20260506200502 | 58 | 212 | 3.5 | 4.3 | 0.07 | 0.00 | 0.15 | 97 | 1007.1 |
| 20260506200220 | 58 | 192 | 0.9 | 0.9 | 0.07 | 0.15 | 0.15 | 97 | 1035.8 |
| 20260506200003 | 58 | 191 | 2.6 | 3.5 | 0.07 | 0.00 | 0.15 | 97 | 1007.2 |
| 20260506195717 | 58 | 211 | 0.9 | 0.9 | 0.07 | 0.15 | 0.15 | 97 | 1035.9 |
| 20260506195502 | 58 | 6 | 1.7 | 2.6 | 0.00 | 0.00 | 0.13 | 97 | 1007.3 |
| 20260506195213 | 58 | 196 | 1.7 | 1.7 | 0.05 | 0.14 | 0.14 | 97 | 1035.9 |
| 20260506194711 | 58 | 201 | 0.9 | 1.7 | 0.05 | 0.14 | 0.14 | 96 | 1035.7 |
| 20260506194502 | 58 | 178 | 0.9 | 1.7 | 0.04 | 0.00 | 0.13 | 96 | 1007.2 |
| 20260506194207 | 58 | 191 | 1.7 | 2.6 | 0.05 | 0.13 | 0.13 | 96 | 1036.1 |
| 20260506194002 | 58 | 176 | 0.9 | 1.7 | 0.04 | 0.00 | 0.13 | 96 | 1007.2 |
| 20260506193705 | 58 | 182 | 2.6 | 2.6 | 0.09 | 0.13 | 0.13 | 95 | 1036.0 |
| 20260506193503 | 58 | 156 | 2.6 | 3.5 | 0.09 | 0.00 | 0.13 | 95 | 1007.2 |
| 20260506193201 | 59 | 191 | 2.6 | 2.6 | 0.05 | 0.12 | 0.12 | 95 | 1036.0 |
| 20260506193002 | 59 | 115 | 1.7 | 2.6 | 0.04 | 0.00 | 0.12 | 95 | 1007.4 |
| 20260506192658 | 59 | 176 | 0.9 | 1.7 | 0.05 | 0.11 | 0.11 | 95 | 1035.9 |
| 20260506192503 | 59 | 146 | 0.9 | 1.7 | 0.04 | 0.00 | 0.11 | 95 | 1007.3 |
| 20260506192154 | 59 | 145 | 0.9 | 0.9 | 0.05 | 0.11 | 0.11 | 94 | 1036.1 |
| 20260506192002 | 59 | 146 | 2.6 | 3.5 | 0.11 | 0.00 | 0.11 | 94 | 1007.4 |
| 20260506191651 | 59 | 183 | 1.7 | 1.7 | 0.07 | 0.11 | 0.11 | 94 | 1036.1 |
| 20260506191502 | 59 | 200 | 1.7 | 2.6 | 0.07 | 0.00 | 0.10 | 94 | 1007.1 |
| 20260506191147 | 59 | 196 | 1.7 | 1.7 | 0.05 | 0.09 | 0.09 | 94 | 1036.4 |
| 20260506190645 | 60 | 155 | 1.7 | 4.3 | 0.09 | 0.09 | 0.09 | 93 | 1036.2 |
| 20260506190141 | 59 | 187 | 0.0 | 0.0 | 0.05 | 0.09 | 0.09 | 93 | 1036.2 |
| 20260506190002 | 60 | 209 | 1.7 | 2.6 | 0.04 | 0.00 | 0.08 | 93 | 1007.6 |
| 20260506185638 | 60 | 178 | 0.9 | 0.9 | 0.05 | 0.08 | 0.08 | 92 | 1036.1 |
| 20260506185134 | 60 | 196 | 1.7 | 2.6 | 0.05 | 0.08 | 0.08 | 92 | 1035.9 |
| 20260506185003 | 60 | 197 | 1.7 | 2.6 | 0.04 | 0.00 | 0.07 | 92 | 1007.6 |
| 20260506184632 | 60 | 179 | 0.9 | 0.9 | 0.07 | 0.07 | 0.07 | 91 | 1036.0 |
| 20260506184503 | 60 | 159 | 0.9 | 1.7 | 0.07 | 0.00 | 0.07 | 91 | 1007.3 |
| 20260506184129 | 60 | 177 | 0.9 | 0.9 | 0.07 | 0.07 | 0.07 | 91 | 1036.1 |
| 20260506184002 | 60 | 179 | 1.7 | 1.7 | 0.11 | 0.00 | 0.07 | 91 | 1007.6 |
| 20260506183626 | 60 | 176 | 0.0 | 0.9 | 0.09 | 0.06 | 0.06 | 90 | 1036.4 |
| 20260506183503 | 60 | 180 | 0.9 | 1.7 | 0.14 | 0.00 | 0.05 | 90 | 1007.7 |
| 20260506183122 | 60 | 227 | 2.6 | 2.6 | 0.09 | 0.05 | 0.05 | 89 | 1036.5 |
| 20260506183004 | 60 | 181 | 0.9 | 1.7 | 0.09 | 0.00 | 0.05 | 89 | 1007.8 |
| 20260506182620 | 61 | 194 | 0.9 | 1.7 | 0.05 | 0.04 | 0.04 | 88 | 1036.6 |
| 20260506182502 | 61 | 197 | 1.7 | 2.6 | 0.04 | 0.00 | 0.03 | 88 | 1007.9 |
| 20260506182116 | 61 | 129 | 0.0 | 0.9 | 0.12 | 0.04 | 0.04 | 88 | 1036.6 |
| 20260506182003 | 61 | 203 | 0.0 | 0.0 | 0.11 | 0.00 | 0.03 | 87 | 1007.9 |
| 20260506181614 | 61 | 162 | 0.0 | 0.9 | 0.07 | 0.03 | 0.03 | 87 | 1036.8 |
| 20260506181502 | 61 | 174 | 0.9 | 1.7 | 0.07 | 0.00 | 0.02 | 86 | 1008.0 |
| 20260506181111 | 62 | 194 | 0.0 | 0.0 | 0.05 | 0.02 | 0.02 | 85 | 1036.8 |
| 20260506181002 | 62 | 293 | 3.5 | 4.3 | 0.04 | 0.00 | 0.01 | 85 | 1008.1 |
| 20260506180608 | 62 | 143 | 0.0 | 0.9 | 0.05 | 0.02 | 0.02 | 85 | 1036.8 |
| 20260506180503 | 62 | 184 | 0.0 | 0.0 | 0.09 | 0.00 | 0.01 | 84 | 1008.3 |
| 20260506180104 | 62 | 95 | 0.9 | 0.9 | 0.05 | 0.01 | 0.01 | 83 | 1036.9 |
| 20260506175601 | 63 | 117 | 0.9 | 0.9 | 0.05 | 0.01 | 0.01 | 80 | 1036.8 |
| 20260506175502 | 63 | 222 | 2.6 | 3.5 | 0.00 | 0.00 | 0.00 | 79 | 1008.4 |
| 20260506175057 | 64 | 215 | 1.7 | 1.7 | 0.00 | 0.00 | 0.00 | 78 | 1037.0 |
| 20260506175003 | 64 | 3 | 2.6 | 3.5 | 0.00 | 0.00 | 0.00 | 76 | 1008.3 |
| 20260506174556 | 65 | 197 | 0.9 | 1.7 | 0.00 | 0.00 | 0.00 | 74 | 1037.1 |
| 20260506174502 | 65 | 192 | 3.5 | 3.5 | 0.00 | 0.00 | 0.00 | 74 | 1008.3 |
| 20260506174051 | 66 | 183 | 4.3 | 6.1 | 0.00 | 0.00 | 0.00 | 71 | 1037.0 |
| 20260506173550 | 67 | 176 | 3.5 | 6.1 | 0.00 | 0.00 | 0.00 | 69 | 1037.0 |
| 20260506173504 | 68 | 249 | 3.5 | 4.3 | 0.00 | 0.00 | 0.00 | 68 | 1008.4 |
| 20260506173046 | 68 | 209 | 1.7 | 2.6 | 0.00 | 0.00 | 0.00 | 66 | 1037.1 |
| 20260506173002 | 69 | 53 | 2.6 | 4.3 | 0.00 | 0.00 | 0.00 | 65 | 1008.4 |
| 20260506172544 | 69 | 245 | 0.9 | 0.9 | 0.00 | 0.00 | 0.00 | 64 | 1036.9 |
| 20260506172502 | 69 | 245 | 1.7 | 1.7 | 0.00 | 0.00 | 0.00 | 64 | 1008.2 |
| 20260506172040 | 69 | 209 | 1.7 | 2.6 | 0.00 | 0.00 | 0.00 | 63 | 1036.7 |
| 20260506172003 | 69 | 209 | 2.6 | 3.5 | 0.00 | 0.00 | 0.00 | 63 | 1008.0 |
| 20260506171537 | 69 | 202 | 2.6 | 5.2 | 0.00 | 0.00 | 0.00 | 62 | 1037.0 |
| 20260506171503 | 69 | 202 | 2.6 | 5.2 | 0.00 | 0.00 | 0.00 | 62 | 1008.3 |
| 20260506171035 | 69 | 208 | 2.6 | 2.6 | 0.00 | 0.00 | 0.00 | 62 | 1036.5 |
| 20260506171002 | 69 | 208 | 2.6 | 3.5 | 0.00 | 0.00 | 0.00 | 62 | 1007.8 |
| 20260506170532 | 69 | 222 | 2.6 | 4.3 | 0.00 | 0.00 | 0.00 | 62 | 1036.8 |
| 20260506170502 | 69 | 222 | 2.6 | 4.3 | 0.00 | 0.00 | 0.00 | 62 | 1008.1 |
| 20260506170030 | 70 | 196 | 3.5 | 6.1 | 0.00 | 0.00 | 0.00 | 60 | 1036.6 |
| 20260506170003 | 70 | 196 | 3.5 | 6.1 | 0.00 | 0.00 | 0.00 | 60 | 1007.9 |
| 20260506165528 | 70 | 114 | 3.5 | 5.2 | 0.00 | 0.00 | 0.00 | 61 | 1036.7 |
| 20260506165502 | 70 | 114 | 3.5 | 5.2 | 0.00 | 0.00 | 0.00 | 61 | 1008.0 |
| 20260506165024 | 71 | 198 | 3.5 | 5.2 | 0.00 | 0.00 | 0.00 | 60 | 1036.9 |
| 20260506165002 | 71 | 198 | 3.5 | 5.2 | 0.00 | 0.00 | 0.00 | 60 | 1008.2 |
| 20260506164521 | 71 | 38 | 2.6 | 2.6 | 0.00 | 0.00 | 0.00 | 59 | 1036.8 |
| 20260506164503 | 71 | 38 | 2.6 | 3.5 | 0.00 | 0.00 | 0.00 | 59 | 1008.1 |
| 20260506164018 | 71 | 239 | 3.5 | 4.3 | 0.00 | 0.00 | 0.00 | 59 | 1036.6 |
| 20260506164002 | 71 | 239 | 3.5 | 4.3 | 0.00 | 0.00 | 0.00 | 59 | 1007.9 |
| 20260506163514 | 70 | 206 | 4.3 | 5.2 | 0.00 | 0.00 | 0.00 | 59 | 1036.6 |
| 20260506163010 | 70 | 193 | 1.7 | 4.3 | 0.00 | 0.00 | 0.00 | 60 | 1036.9 |
| 20260506163002 | 70 | 193 | 2.6 | 4.3 | 0.00 | 0.00 | 0.00 | 60 | 1008.2 |
| 20260506162506 | 70 | 193 | 0.9 | 0.9 | 0.00 | 0.00 | 0.00 | 60 | 1037.0 |
| 20260506162004 | 70 | 171 | 2.6 | 4.3 | 0.00 | 0.00 | 0.00 | 61 | 1037.2 |
| 20260506162002 | 70 | 171 | 2.6 | 4.3 | 0.00 | 0.00 | 0.00 | 61 | 1008.5 |
| 20260506161502 | 70 | 82 | 2.6 | 4.3 | 0.00 | 0.00 | 0.00 | 61 | 1008.5 |
| 20260506161003 | 70 | 188 | 3.5 | 4.3 | 0.00 | 0.00 | 0.00 | 61 | 1008.5 |
| 20260506160958 | 70 | 188 | 3.5 | 4.3 | 0.00 | 0.00 | 0.00 | 61 | 1037.2 |
| 20260506160502 | 69 | 180 | 1.7 | 1.7 | 0.00 | 0.00 | 0.00 | 61 | 1008.5 |
| 20260506160455 | 69 | 180 | 0.9 | 0.9 | 0.00 | 0.00 | 0.00 | 61 | 1037.2 |
| 20260506160003 | 69 | 151 | 0.9 | 1.7 | 0.00 | 0.00 | 0.00 | 62 | 1008.4 |
| 20260506155952 | 69 | 151 | 0.9 | 0.9 | 0.00 | 0.00 | 0.00 | 62 | 1037.1 |
| 20260506155502 | 69 | 194 | 2.6 | 3.5 | 0.00 | 0.00 | 0.00 | 63 | 1008.8 |
| 20260506155450 | 69 | 194 | 1.7 | 2.6 | 0.00 | 0.00 | 0.00 | 63 | 1037.5 |
| 20260506155002 | 69 | 218 | 5.2 | 6.1 | 0.00 | 0.00 | 0.00 | 62 | 1008.9 |
| 20260506154503 | 69 | 205 | 1.7 | 2.6 | 0.00 | 0.00 | 0.00 | 63 | 1008.9 |
| 20260506154002 | 69 | 92 | 1.7 | 1.7 | 0.00 | 0.00 | 0.00 | 62 | 1008.9 |
| 20260506153622 | 69 | 178 | 0.9 | 0.9 | 0.00 | 0.00 | 0.00 | 63 | 1037.7 |
| 20260506153503 | 68 | 160 | 1.7 | 2.6 | 0.00 | 0.00 | 0.00 | 63 | 1009.1 |
| 20260506153120 | 68 | 162 | 1.7 | 2.6 | 0.00 | 0.00 | 0.00 | 63 | 1037.7 |
| 20260506153002 | 68 | 184 | 2.6 | 3.5 | 0.00 | 0.00 | 0.00 | 64 | 1009.2 |
| 20260506152617 | 68 | 93 | 0.9 | 1.7 | 0.00 | 0.00 | 0.00 | 64 | 1037.6 |
| 20260506152503 | 68 | 196 | 1.7 | 2.6 | 0.00 | 0.00 | 0.00 | 64 | 1008.9 |
| 20260506152115 | 68 | 162 | 0.0 | 0.9 | 0.00 | 0.00 | 0.00 | 64 | 1037.9 |
| 20260506152002 | 68 | 112 | 2.6 | 3.5 | 0.00 | 0.00 | 0.00 | 63 | 1009.1 |
| 20260506151613 | 68 | 168 | 2.6 | 4.3 | 0.00 | 0.00 | 0.00 | 64 | 1038.1 |
| 20260506151503 | 68 | 207 | 2.6 | 4.3 | 0.00 | 0.00 | 0.00 | 64 | 1009.2 |
| 20260506151109 | 68 | 178 | 2.6 | 4.3 | 0.00 | 0.00 | 0.00 | 63 | 1037.8 |
| 20260506150606 | 68 | 193 | 0.9 | 1.7 | 0.00 | 0.00 | 0.00 | 64 | 1037.9 |
| 20260506150503 | 68 | 203 | 3.5 | 4.3 | 0.00 | 0.00 | 0.00 | 63 | 1009.5 |
| 20260506150003 | 68 | 212 | 2.6 | 3.5 | 0.00 | 0.00 | 0.00 | 64 | 1009.5 |
| 20260506145600 | 69 | 258 | 4.3 | 6.1 | 0.00 | 0.00 | 0.00 | 63 | 1038.3 |
| 20260506145057 | 69 | 210 | 2.6 | 2.6 | 0.00 | 0.00 | 0.00 | 64 | 1038.2 |
| 20260506145002 | 69 | 350 | 2.6 | 3.5 | 0.00 | 0.00 | 0.00 | 64 | 1009.3 |
| 20260506144554 | 69 | 150 | 0.9 | 1.7 | 0.00 | 0.00 | 0.00 | 63 | 1038.3 |
| 20260506144503 | 69 | 191 | 1.7 | 3.5 | 0.00 | 0.00 | 0.00 | 63 | 1009.4 |
| 20260506144051 | 69 | 177 | 0.9 | 1.7 | 0.00 | 0.00 | 0.00 | 64 | 1038.1 |
| 20260506144003 | 69 | 158 | 1.7 | 2.6 | 0.00 | 0.00 | 0.00 | 64 | 1009.6 |
| 20260506143549 | 68 | 204 | 5.2 | 8.7 | 0.00 | 0.00 | 0.00 | 65 | 1038.3 |
| 20260506143503 | 68 | 187 | 0.9 | 1.7 | 0.00 | 0.00 | 0.00 | 66 | 1009.6 |
| 20260506143047 | 68 | 187 | 2.6 | 4.3 | 0.00 | 0.00 | 0.00 | 67 | 1038.7 |
| 20260506143002 | 68 | 216 | 2.6 | 3.5 | 0.00 | 0.00 | 0.00 | 67 | 1009.6 |
| 20260506142544 | 67 | 207 | 0.9 | 0.9 | 0.00 | 0.00 | 0.00 | 68 | 1038.7 |
| 20260506142503 | 67 | 207 | 1.7 | 1.7 | 0.00 | 0.00 | 0.00 | 68 | 1009.9 |
| 20260506142042 | 67 | 156 | 2.6 | 2.6 | 0.00 | 0.00 | 0.00 | 67 | 1038.2 |
| 20260506142003 | 67 | 156 | 2.6 | 3.5 | 0.00 | 0.00 | 0.00 | 67 | 1009.5 |
| 20260506141540 | 67 | 105 | 2.6 | 4.3 | 0.00 | 0.00 | 0.00 | 67 | 1038.3 |
| 20260506141038 | 67 | 242 | 1.7 | 1.7 | 0.00 | 0.00 | 0.00 | 68 | 1038.4 |
| 20260506141002 | 67 | 242 | 1.7 | 2.6 | 0.00 | 0.00 | 0.00 | 68 | 1009.7 |
| 20260506140535 | 66 | 179 | 2.6 | 4.3 | 0.00 | 0.00 | 0.00 | 68 | 1038.1 |
| 20260506140032 | 66 | 210 | 1.7 | 1.7 | 0.00 | 0.00 | 0.00 | 69 | 1038.3 |
| 20260506140003 | 66 | 210 | 1.7 | 2.6 | 0.00 | 0.00 | 0.00 | 69 | 1009.6 |
| 20260506135529 | 66 | 158 | 0.9 | 0.9 | 0.00 | 0.00 | 0.00 | 69 | 1038.1 |
| 20260506135503 | 66 | 158 | 0.9 | 1.7 | 0.00 | 0.00 | 0.00 | 69 | 1009.4 |
| 20260506135025 | 67 | 12 | 0.9 | 1.7 | 0.00 | 0.00 | 0.00 | 69 | 1038.1 |
| 20260506135002 | 67 | 12 | 1.7 | 2.6 | 0.00 | 0.00 | 0.00 | 69 | 1009.4 |
| 20260506134521 | 67 | 203 | 2.6 | 5.2 | 0.00 | 0.00 | 0.00 | 69 | 1038.2 |
| 20260506134018 | 66 | 99 | 1.7 | 2.6 | 0.00 | 0.00 | 0.00 | 71 | 1038.4 |
| 20260506134002 | 66 | 99 | 1.7 | 3.5 | 0.00 | 0.00 | 0.00 | 71 | 1009.7 |
| 20260506133515 | 66 | 253 | 4.3 | 5.2 | 0.00 | 0.00 | 0.00 | 71 | 1038.3 |
| 20260506133503 | 66 | 253 | 4.3 | 5.2 | 0.00 | 0.00 | 0.00 | 71 | 1009.6 |
| 20260506133012 | 65 | 188 | 1.7 | 1.7 | 0.00 | 0.00 | 0.00 | 71 | 1038.2 |
| 20260506133002 | 65 | 188 | 2.6 | 2.6 | 0.00 | 0.00 | 0.00 | 71 | 1009.5 |
| 20260506132509 | 65 | 175 | 3.5 | 4.3 | 0.00 | 0.00 | 0.00 | 72 | 1038.3 |
| 20260506132503 | 65 | 175 | 3.5 | 4.3 | 0.00 | 0.00 | 0.00 | 72 | 1009.6 |
| 20260506132006 | 65 | 199 | 1.7 | 2.6 | 0.00 | 0.00 | 0.00 | 72 | 1038.4 |
| 20260506132002 | 65 | 199 | 1.7 | 3.5 | 0.00 | 0.00 | 0.00 | 72 | 1009.7 |
| 20260506131503 | 65 | 95 | 2.6 | 3.5 | 0.00 | 0.00 | 0.00 | 73 | 1009.9 |
| 20260506131002 | 64 | 211 | 2.6 | 4.3 | 0.00 | 0.00 | 0.00 | 73 | 1010.2 |
| 20260506131000 | 64 | 211 | 2.6 | 4.3 | 0.00 | 0.00 | 0.00 | 73 | 1039.0 |
| 20260506130503 | 64 | 200 | 2.6 | 3.5 | 0.00 | 0.00 | 0.00 | 74 | 1010.2 |
| 20260506130456 | 64 | 200 | 2.6 | 2.6 | 0.00 | 0.00 | 0.00 | 74 | 1039.0 |
| 20260506130004 | 63 | 108 | 1.7 | 2.6 | 0.00 | 0.00 | 0.00 | 75 | 1010.3 |
| 20260506125954 | 63 | 108 | 0.9 | 1.7 | 0.00 | 0.00 | 0.00 | 75 | 1039.1 |
| 20260506125502 | 63 | 218 | 0.9 | 1.7 | 0.00 | 0.00 | 0.00 | 76 | 1010.2 |
| 20260506125452 | 63 | 218 | 0.9 | 0.9 | 0.00 | 0.00 | 0.00 | 76 | 1039.0 |
| 20260506125002 | 63 | 82 | 1.7 | 3.5 | 0.00 | 0.00 | 0.00 | 76 | 1010.1 |
| 20260506124950 | 63 | 82 | 1.7 | 2.6 | 0.00 | 0.00 | 0.00 | 76 | 1038.9 |
| 20260506124503 | 63 | 226 | 1.7 | 2.6 | 0.00 | 0.00 | 0.00 | 76 | 1010.0 |
| 20260506124447 | 63 | 226 | 0.9 | 1.7 | 0.00 | 0.00 | 0.00 | 76 | 1038.8 |
| 20260506123945 | 62 | 207 | 0.9 | 1.7 | 0.00 | 0.00 | 0.00 | 77 | 1039.1 |
| 20260506123443 | 62 | 202 | 1.7 | 2.6 | 0.00 | 0.00 | 0.00 | 77 | 1038.7 |
| 20260506123003 | 62 | 170 | 1.7 | 2.6 | 0.00 | 0.00 | 0.00 | 77 | 1010.2 |
| 20260506122940 | 62 | 209 | 1.7 | 1.7 | 0.00 | 0.00 | 0.00 | 76 | 1039.1 |
| 20260506122502 | 63 | 186 | 1.7 | 2.6 | 0.00 | 0.00 | 0.00 | 76 | 1009.9 |
| 20260506122437 | 62 | 188 | 0.9 | 1.7 | 0.00 | 0.00 | 0.00 | 76 | 1038.8 |
| 20260506122003 | 62 | 166 | 0.9 | 1.7 | 0.00 | 0.00 | 0.00 | 77 | 1009.9 |
| 20260506121935 | 62 | 193 | 2.6 | 2.6 | 0.00 | 0.00 | 0.00 | 77 | 1038.7 |
| 20260506121503 | 62 | 206 | 3.5 | 4.3 | 0.00 | 0.00 | 0.00 | 78 | 1009.8 |
| 20260506121432 | 61 | 183 | 2.6 | 4.3 | 0.00 | 0.00 | 0.00 | 78 | 1038.8 |
| 20260506121002 | 62 | 186 | 1.7 | 2.6 | 0.00 | 0.00 | 0.00 | 78 | 1010.2 |
| 20260506120929 | 62 | 191 | 0.9 | 1.7 | 0.00 | 0.00 | 0.00 | 78 | 1039.0 |
| 20260506120502 | 61 | 182 | 3.5 | 3.5 | 0.00 | 0.00 | 0.00 | 78 | 1010.1 |
| 20260506120426 | 61 | 119 | 0.9 | 1.7 | 0.00 | 0.00 | 0.00 | 78 | 1038.9 |
| 20260506120003 | 61 | 185 | 1.7 | 2.6 | 0.00 | 0.00 | 0.00 | 78 | 1010.0 |
| 20260506115924 | 61 | 173 | 0.9 | 1.7 | 0.00 | 0.00 | 0.00 | 78 | 1038.8 |
| 20260506115503 | 61 | 158 | 1.7 | 2.6 | 0.00 | 0.00 | 0.00 | 79 | 1010.2 |
| 20260506115421 | 61 | 149 | 0.9 | 0.9 | 0.00 | 0.00 | 0.00 | 79 | 1039.0 |
| 20260506114920 | 61 | 98 | 1.7 | 2.6 | 0.00 | 0.00 | 0.00 | 79 | 1038.8 |
| 20260506114502 | 61 | 187 | 1.7 | 1.7 | 0.00 | 0.00 | 0.00 | 78 | 1010.0 |
| 20260506114417 | 61 | 175 | 0.9 | 1.7 | 0.00 | 0.00 | 0.00 | 79 | 1038.8 |
| 20260506114003 | 61 | 191 | 2.6 | 3.5 | 0.00 | 0.00 | 0.00 | 78 | 1009.9 |
| 20260506113916 | 61 | 191 | 1.7 | 1.7 | 0.00 | 0.00 | 0.00 | 79 | 1038.9 |
| 20260506113502 | 60 | 14 | 2.6 | 3.5 | 0.00 | 0.00 | 0.00 | 80 | 1010.3 |
| 20260506113413 | 60 | 41 | 1.7 | 2.6 | 0.00 | 0.00 | 0.00 | 80 | 1038.8 |
| 20260506113003 | 60 | 189 | 0.9 | 1.7 | 0.00 | 0.00 | 0.00 | 80 | 1010.4 |
| 20260506112909 | 60 | 191 | 0.9 | 0.9 | 0.00 | 0.00 | 0.00 | 80 | 1039.0 |
| 20260506112502 | 59 | 185 | 0.9 | 1.7 | 0.00 | 0.00 | 0.00 | 81 | 1010.3 |
| 20260506112407 | 59 | 197 | 1.7 | 1.7 | 0.00 | 0.00 | 0.00 | 81 | 1039.1 |
| 20260506112002 | 59 | 186 | 1.7 | 1.7 | 0.00 | 0.00 | 0.00 | 82 | 1010.3 |
| 20260506111904 | 59 | 173 | 0.9 | 1.7 | 0.00 | 0.00 | 0.00 | 82 | 1039.1 |
| 20260506111402 | 59 | 166 | 0.9 | 0.9 | 0.00 | 0.00 | 0.00 | 82 | 1039.1 |
| 20260506111003 | 59 | 137 | 0.9 | 1.7 | 0.00 | 0.00 | 0.00 | 81 | 1010.4 |
| 20260506110859 | 59 | 172 | 1.7 | 1.7 | 0.00 | 0.00 | 0.00 | 81 | 1039.3 |
| 20260506110503 | 59 | 242 | 0.9 | 1.7 | 0.00 | 0.00 | 0.00 | 81 | 1010.6 |
| 20260506110356 | 59 | 190 | 0.9 | 0.9 | 0.00 | 0.00 | 0.00 | 81 | 1039.4 |
| 20260506110002 | 59 | 191 | 2.6 | 2.6 | 0.00 | 0.00 | 0.00 | 81 | 1010.4 |
| 20260506105853 | 59 | 200 | 1.7 | 2.6 | 0.00 | 0.00 | 0.00 | 81 | 1039.2 |
| 20260506105503 | 59 | 116 | 1.7 | 2.6 | 0.00 | 0.00 | 0.00 | 82 | 1010.1 |
| 20260506105349 | 59 | 162 | 0.9 | 0.9 | 0.00 | 0.00 | 0.00 | 82 | 1039.2 |
| 20260506105003 | 59 | 172 | 1.7 | 2.6 | 0.00 | 0.00 | 0.00 | 82 | 1010.2 |
| 20260506104847 | 59 | 175 | 1.7 | 1.7 | 0.00 | 0.00 | 0.00 | 82 | 1039.2 |
| 20260506104502 | 59 | 201 | 1.7 | 2.6 | 0.00 | 0.00 | 0.00 | 82 | 1010.5 |
| 20260506104344 | 58 | 149 | 0.9 | 1.7 | 0.00 | 0.00 | 0.00 | 82 | 1038.9 |